sensor_id;sensor_type;location;lat;lon;timestamp;temperature;humidity
11549;DHT22;61444;59.472;18.306;2022-07-29T00:00:49;10.00;99.90
11549;DHT22;61444;59.472;18.306;2022-07-29T00:02:58;10.00;99.90
11549;DHT22;61444;59.472;18.306;2022-07-29T00:05:08;10.00;99.90
11549;DHT22;61444;59.472;18.306;2022-07-29T00:07:20;10.00;99.90
11549;DHT22;61444;59.472;18.306;2022-07-29T00:09:28;9.90;99.90
11549;DHT22;61444;59.472;18.306;2022-07-29T00:11:38;9.80;99.90
11549;DHT22;61444;59.472;18.306;2022-07-29T00:13:47;9.90;99.90
11549;DHT22;61444;59.472;18.306;2022-07-29T00:15:57;9.90;99.90
11549;DHT22;61444;59.472;18.306;2022-07-29T00:18:10;9.90;99.90
11549;DHT22;61444;59.472;18.306;2022-07-29T00:20:19;9.90;99.90
11549;DHT22;61444;59.472;18.306;2022-07-29T00:22:29;9.80;99.90
11549;DHT22;61444;59.472;18.306;2022-07-29T00:24:38;9.70;99.90
11549;DHT22;61444;59.472;18.306;2022-07-29T00:26:48;9.60;99.90
11549;DHT22;61444;59.472;18.306;2022-07-29T00:28:56;9.60;99.90
11549;DHT22;61444;59.472;18.306;2022-07-29T00:31:25;9.60;99.90
11549;DHT22;61444;59.472;18.306;2022-07-29T00:33:33;9.60;99.90
11549;DHT22;61444;59.472;18.306;2022-07-29T00:35:42;9.60;99.90
11549;DHT22;61444;59.472;18.306;2022-07-29T00:37:52;9.60;99.90
11549;DHT22;61444;59.472;18.306;2022-07-29T00:40:00;9.60;99.90
11549;DHT22;61444;59.472;18.306;2022-07-29T00:42:10;9.50;99.90
11549;DHT22;61444;59.472;18.306;2022-07-29T00:44:19;9.50;99.90
11549;DHT22;61444;59.472;18.306;2022-07-29T00:46:27;9.50;99.90
11549;DHT22;61444;59.472;18.306;2022-07-29T00:48:36;9.40;99.90
11549;DHT22;61444;59.472;18.306;2022-07-29T00:50:45;9.50;99.90
11549;DHT22;61444;59.472;18.306;2022-07-29T00:52:54;9.40;99.90
11549;DHT22;61444;59.472;18.306;2022-07-29T00:55:03;9.40;99.90
11549;DHT22;61444;59.472;18.306;2022-07-29T00:57:16;9.40;99.90
11549;DHT22;61444;59.472;18.306;2022-07-29T00:59:25;9.40;99.90
11549;DHT22;61444;59.472;18.306;2022-07-29T01:01:41;9.30;99.90
11549;DHT22;61444;59.472;18.306;2022-07-29T01:03:49;9.30;99.90
11549;DHT22;61444;59.472;18.306;2022-07-29T01:05:58;9.20;99.90
11549;DHT22;61444;59.472;18.306;2022-07-29T01:08:08;9.20;99.90
11549;DHT22;61444;59.472;18.306;2022-07-29T01:10:18;9.10;99.90
11549;DHT22;61444;59.472;18.306;2022-07-29T01:12:30;9.10;99.90
11549;DHT22;61444;59.472;18.306;2022-07-29T01:14:40;9.10;99.90
11549;DHT22;61444;59.472;18.306;2022-07-29T01:16:51;9.10;99.90
11549;DHT22;61444;59.472;18.306;2022-07-29T01:19:13;9.00;99.90
11549;DHT22;61444;59.472;18.306;2022-07-29T01:21:43;9.00;99.90
11549;DHT22;61444;59.472;18.306;2022-07-29T01:24:14;9.00;99.90
11549;DHT22;61444;59.472;18.306;2022-07-29T01:26:42;9.00;99.90
11549;DHT22;61444;59.472;18.306;2022-07-29T01:29:02;9.00;99.90
11549;DHT22;61444;59.472;18.306;2022-07-29T01:31:18;9.00;99.90
11549;DHT22;61444;59.472;18.306;2022-07-29T01:33:34;9.00;99.90
11549;DHT22;61444;59.472;18.306;2022-07-29T01:35:58;9.00;99.90
11549;DHT22;61444;59.472;18.306;2022-07-29T01:38:12;8.90;99.90
11549;DHT22;61444;59.472;18.306;2022-07-29T01:40:25;8.90;99.90
11549;DHT22;61444;59.472;18.306;2022-07-29T01:42:38;8.90;99.90
11549;DHT22;61444;59.472;18.306;2022-07-29T01:44:54;8.80;99.90
11549;DHT22;61444;59.472;18.306;2022-07-29T01:47:10;8.80;99.90
11549;DHT22;61444;59.472;18.306;2022-07-29T01:49:23;8.70;99.90
11549;DHT22;61444;59.472;18.306;2022-07-29T01:51:38;8.70;99.90
11549;DHT22;61444;59.472;18.306;2022-07-29T01:53:54;8.70;99.90
11549;DHT22;61444;59.472;18.306;2022-07-29T01:56:04;8.60;99.90
11549;DHT22;61444;59.472;18.306;2022-07-29T01:58:14;8.60;99.90
11549;DHT22;61444;59.472;18.306;2022-07-29T02:00:27;8.60;99.90
11549;DHT22;61444;59.472;18.306;2022-07-29T02:02:40;8.60;99.90
11549;DHT22;61444;59.472;18.306;2022-07-29T02:04:53;8.60;99.90
11549;DHT22;61444;59.472;18.306;2022-07-29T02:07:06;8.70;99.90
11549;DHT22;61444;59.472;18.306;2022-07-29T02:09:15;8.60;99.90
11549;DHT22;61444;59.472;18.306;2022-07-29T02:11:24;8.60;99.90
11549;DHT22;61444;59.472;18.306;2022-07-29T02:13:35;8.60;99.90
11549;DHT22;61444;59.472;18.306;2022-07-29T02:15:48;8.60;99.90
11549;DHT22;61444;59.472;18.306;2022-07-29T02:18:01;8.60;99.90
11549;DHT22;61444;59.472;18.306;2022-07-29T02:20:11;8.60;99.90
11549;DHT22;61444;59.472;18.306;2022-07-29T02:22:21;8.50;99.90
11549;DHT22;61444;59.472;18.306;2022-07-29T02:24:31;8.50;99.90
11549;DHT22;61444;59.472;18.306;2022-07-29T02:26:43;8.50;99.90
11549;DHT22;61444;59.472;18.306;2022-07-29T02:28:55;8.50;99.90
11549;DHT22;61444;59.472;18.306;2022-07-29T02:31:06;8.50;99.90
11549;DHT22;61444;59.472;18.306;2022-07-29T02:33:17;8.50;99.90
11549;DHT22;61444;59.472;18.306;2022-07-29T02:35:27;8.50;99.90
11549;DHT22;61444;59.472;18.306;2022-07-29T02:37:41;8.40;99.90
11549;DHT22;61444;59.472;18.306;2022-07-29T02:39:51;8.40;99.90
11549;DHT22;61444;59.472;18.306;2022-07-29T02:42:03;8.30;99.90
11549;DHT22;61444;59.472;18.306;2022-07-29T02:44:16;8.30;99.90
11549;DHT22;61444;59.472;18.306;2022-07-29T02:46:31;8.30;99.90
11549;DHT22;61444;59.472;18.306;2022-07-29T02:48:44;8.30;99.90
11549;DHT22;61444;59.472;18.306;2022-07-29T02:51:05;8.40;99.90
11549;DHT22;61444;59.472;18.306;2022-07-29T02:53:17;8.40;99.90
11549;DHT22;61444;59.472;18.306;2022-07-29T02:55:30;8.40;99.90
11549;DHT22;61444;59.472;18.306;2022-07-29T02:57:43;8.40;99.90
11549;DHT22;61444;59.472;18.306;2022-07-29T03:00:05;8.50;99.90
11549;DHT22;61444;59.472;18.306;2022-07-29T03:02:17;8.40;99.90
11549;DHT22;61444;59.472;18.306;2022-07-29T03:04:27;8.40;99.90
11549;DHT22;61444;59.472;18.306;2022-07-29T03:06:37;8.50;99.90
11549;DHT22;61444;59.472;18.306;2022-07-29T03:08:48;8.40;99.90
11549;DHT22;61444;59.472;18.306;2022-07-29T03:10:57;8.40;99.90
11549;DHT22;61444;59.472;18.306;2022-07-29T03:13:05;8.40;99.90
11549;DHT22;61444;59.472;18.306;2022-07-29T03:15:18;8.40;99.90
11549;DHT22;61444;59.472;18.306;2022-07-29T03:17:32;8.30;99.90
11549;DHT22;61444;59.472;18.306;2022-07-29T03:19:41;8.30;99.90
11549;DHT22;61444;59.472;18.306;2022-07-29T03:21:50;8.40;99.90
11549;DHT22;61444;59.472;18.306;2022-07-29T03:23:58;8.40;99.90
11549;DHT22;61444;59.472;18.306;2022-07-29T03:26:12;8.40;99.90
11549;DHT22;61444;59.472;18.306;2022-07-29T03:28:22;8.50;99.90
11549;DHT22;61444;59.472;18.306;2022-07-29T03:30:34;8.50;99.90
11549;DHT22;61444;59.472;18.306;2022-07-29T03:32:45;8.50;99.90
11549;DHT22;61444;59.472;18.306;2022-07-29T03:34:54;8.50;99.90
11549;DHT22;61444;59.472;18.306;2022-07-29T03:37:03;8.50;99.90
11549;DHT22;61444;59.472;18.306;2022-07-29T03:39:15;8.50;99.90
11549;DHT22;61444;59.472;18.306;2022-07-29T03:41:24;8.60;99.90
11549;DHT22;61444;59.472;18.306;2022-07-29T03:43:37;8.60;99.90
11549;DHT22;61444;59.472;18.306;2022-07-29T03:45:56;8.60;99.90
11549;DHT22;61444;59.472;18.306;2022-07-29T03:48:09;8.70;99.90
11549;DHT22;61444;59.472;18.306;2022-07-29T03:50:21;8.70;99.90
11549;DHT22;61444;59.472;18.306;2022-07-29T03:52:30;8.70;99.90
11549;DHT22;61444;59.472;18.306;2022-07-29T03:54:39;8.80;99.90
11549;DHT22;61444;59.472;18.306;2022-07-29T03:56:49;8.90;99.90
11549;DHT22;61444;59.472;18.306;2022-07-29T03:58:59;9.00;99.90
11549;DHT22;61444;59.472;18.306;2022-07-29T04:01:09;9.00;99.90
11549;DHT22;61444;59.472;18.306;2022-07-29T04:03:20;9.10;99.90
11549;DHT22;61444;59.472;18.306;2022-07-29T04:05:29;9.20;99.90
11549;DHT22;61444;59.472;18.306;2022-07-29T04:07:38;9.20;99.90
11549;DHT22;61444;59.472;18.306;2022-07-29T04:09:46;9.20;99.90
11549;DHT22;61444;59.472;18.306;2022-07-29T04:11:54;9.30;99.90
11549;DHT22;61444;59.472;18.306;2022-07-29T04:14:09;9.30;99.90
11549;DHT22;61444;59.472;18.306;2022-07-29T04:16:18;9.40;99.90
11549;DHT22;61444;59.472;18.306;2022-07-29T04:18:29;9.50;99.90
11549;DHT22;61444;59.472;18.306;2022-07-29T04:20:37;9.60;99.90
11549;DHT22;61444;59.472;18.306;2022-07-29T04:22:45;9.60;99.90
11549;DHT22;61444;59.472;18.306;2022-07-29T04:24:54;9.60;99.90
11549;DHT22;61444;59.472;18.306;2022-07-29T04:27:09;9.70;99.90
11549;DHT22;61444;59.472;18.306;2022-07-29T04:29:17;9.80;99.90
11549;DHT22;61444;59.472;18.306;2022-07-29T04:31:26;9.90;99.90
11549;DHT22;61444;59.472;18.306;2022-07-29T04:33:37;10.00;99.90
11549;DHT22;61444;59.472;18.306;2022-07-29T04:35:45;10.10;99.90
11549;DHT22;61444;59.472;18.306;2022-07-29T04:37:59;10.20;99.90
11549;DHT22;61444;59.472;18.306;2022-07-29T04:40:09;10.30;99.90
11549;DHT22;61444;59.472;18.306;2022-07-29T04:42:18;10.30;99.90
11549;DHT22;61444;59.472;18.306;2022-07-29T04:44:33;10.50;99.90
11549;DHT22;61444;59.472;18.306;2022-07-29T04:46:45;10.60;99.90
11549;DHT22;61444;59.472;18.306;2022-07-29T04:48:55;10.70;99.90
11549;DHT22;61444;59.472;18.306;2022-07-29T04:51:04;10.80;99.90
11549;DHT22;61444;59.472;18.306;2022-07-29T04:53:12;10.90;99.90
11549;DHT22;61444;59.472;18.306;2022-07-29T04:55:21;11.00;99.90
11549;DHT22;61444;59.472;18.306;2022-07-29T04:57:29;11.00;99.90
11549;DHT22;61444;59.472;18.306;2022-07-29T04:59:38;11.10;99.90
11549;DHT22;61444;59.472;18.306;2022-07-29T05:01:47;11.30;99.90
11549;DHT22;61444;59.472;18.306;2022-07-29T05:03:56;11.30;99.90
11549;DHT22;61444;59.472;18.306;2022-07-29T05:06:06;11.40;99.90
11549;DHT22;61444;59.472;18.306;2022-07-29T05:08:15;11.50;99.90
11549;DHT22;61444;59.472;18.306;2022-07-29T05:10:24;11.70;99.90
11549;DHT22;61444;59.472;18.306;2022-07-29T05:12:33;11.70;99.90
11549;DHT22;61444;59.472;18.306;2022-07-29T05:14:41;11.90;99.90
11549;DHT22;61444;59.472;18.306;2022-07-29T05:16:49;12.10;99.90
11549;DHT22;61444;59.472;18.306;2022-07-29T05:19:00;12.20;99.90
11549;DHT22;61444;59.472;18.306;2022-07-29T05:21:08;12.30;99.90
11549;DHT22;61444;59.472;18.306;2022-07-29T05:23:17;12.50;99.90
11549;DHT22;61444;59.472;18.306;2022-07-29T05:25:26;12.60;99.90
11549;DHT22;61444;59.472;18.306;2022-07-29T05:27:49;12.70;99.90
11549;DHT22;61444;59.472;18.306;2022-07-29T05:29:58;12.90;99.90
11549;DHT22;61444;59.472;18.306;2022-07-29T05:32:06;13.00;99.90
11549;DHT22;61444;59.472;18.306;2022-07-29T05:34:16;13.10;99.90
11549;DHT22;61444;59.472;18.306;2022-07-29T05:36:25;13.30;99.90
11549;DHT22;61444;59.472;18.306;2022-07-29T05:38:34;13.40;99.90
11549;DHT22;61444;59.472;18.306;2022-07-29T05:40:45;13.50;99.90
11549;DHT22;61444;59.472;18.306;2022-07-29T05:42:53;13.60;99.90
11549;DHT22;61444;59.472;18.306;2022-07-29T05:45:02;13.70;99.90
11549;DHT22;61444;59.472;18.306;2022-07-29T05:47:11;13.90;99.90
11549;DHT22;61444;59.472;18.306;2022-07-29T05:49:21;14.00;99.90
11549;DHT22;61444;59.472;18.306;2022-07-29T05:51:33;14.10;99.90
11549;DHT22;61444;59.472;18.306;2022-07-29T05:53:41;14.20;99.90
11549;DHT22;61444;59.472;18.306;2022-07-29T05:55:50;14.30;99.90
11549;DHT22;61444;59.472;18.306;2022-07-29T05:57:59;14.40;99.90
11549;DHT22;61444;59.472;18.306;2022-07-29T06:00:08;14.50;99.90
11549;DHT22;61444;59.472;18.306;2022-07-29T06:02:19;14.50;99.90
11549;DHT22;61444;59.472;18.306;2022-07-29T06:04:29;14.50;99.90
11549;DHT22;61444;59.472;18.306;2022-07-29T06:06:37;14.60;99.90
11549;DHT22;61444;59.472;18.306;2022-07-29T06:08:46;14.70;99.90
11549;DHT22;61444;59.472;18.306;2022-07-29T06:10:57;14.80;99.90
11549;DHT22;61444;59.472;18.306;2022-07-29T06:13:05;15.00;99.90
11549;DHT22;61444;59.472;18.306;2022-07-29T06:15:14;15.10;99.90
11549;DHT22;61444;59.472;18.306;2022-07-29T06:17:25;15.30;99.90
11549;DHT22;61444;59.472;18.306;2022-07-29T06:19:35;15.40;99.90
11549;DHT22;61444;59.472;18.306;2022-07-29T06:21:44;15.30;99.90
11549;DHT22;61444;59.472;18.306;2022-07-29T06:23:52;15.40;99.90
11549;DHT22;61444;59.472;18.306;2022-07-29T06:26:00;15.70;99.90
11549;DHT22;61444;59.472;18.306;2022-07-29T06:28:09;15.80;99.90
11549;DHT22;61444;59.472;18.306;2022-07-29T06:30:18;15.80;99.90
11549;DHT22;61444;59.472;18.306;2022-07-29T06:32:26;15.90;99.90
11549;DHT22;61444;59.472;18.306;2022-07-29T06:34:37;15.90;99.90
11549;DHT22;61444;59.472;18.306;2022-07-29T06:36:48;15.80;99.90
11549;DHT22;61444;59.472;18.306;2022-07-29T06:38:58;15.90;99.90
11549;DHT22;61444;59.472;18.306;2022-07-29T06:41:08;15.80;99.90
11549;DHT22;61444;59.472;18.306;2022-07-29T06:43:19;15.90;99.90
11549;DHT22;61444;59.472;18.306;2022-07-29T06:45:28;16.00;99.90
11549;DHT22;61444;59.472;18.306;2022-07-29T06:47:36;15.90;98.80
11549;DHT22;61444;59.472;18.306;2022-07-29T06:49:46;16.00;98.70
11549;DHT22;61444;59.472;18.306;2022-07-29T06:51:55;16.10;98.40
11549;DHT22;61444;59.472;18.306;2022-07-29T06:54:03;16.20;98.00
11549;DHT22;61444;59.472;18.306;2022-07-29T06:56:12;16.20;96.80
11549;DHT22;61444;59.472;18.306;2022-07-29T06:58:20;16.20;94.50
11549;DHT22;61444;59.472;18.306;2022-07-29T07:00:29;16.30;94.80
11549;DHT22;61444;59.472;18.306;2022-07-29T07:02:37;16.20;94.10
11549;DHT22;61444;59.472;18.306;2022-07-29T07:04:48;16.20;94.90
11549;DHT22;61444;59.472;18.306;2022-07-29T07:06:56;16.20;94.40
11549;DHT22;61444;59.472;18.306;2022-07-29T07:09:06;16.20;94.70
11549;DHT22;61444;59.472;18.306;2022-07-29T07:11:16;16.30;91.90
11549;DHT22;61444;59.472;18.306;2022-07-29T07:13:24;16.40;92.90
11549;DHT22;61444;59.472;18.306;2022-07-29T07:15:32;16.50;91.90
11549;DHT22;61444;59.472;18.306;2022-07-29T07:17:45;16.50;91.70
11549;DHT22;61444;59.472;18.306;2022-07-29T07:19:55;16.50;91.40
11549;DHT22;61444;59.472;18.306;2022-07-29T07:22:04;16.60;92.30
11549;DHT22;61444;59.472;18.306;2022-07-29T07:24:12;16.60;91.10
11549;DHT22;61444;59.472;18.306;2022-07-29T07:26:21;16.70;91.80
11549;DHT22;61444;59.472;18.306;2022-07-29T07:28:29;16.70;91.50
11549;DHT22;61444;59.472;18.306;2022-07-29T07:30:38;16.80;90.70
11549;DHT22;61444;59.472;18.306;2022-07-29T07:32:47;16.80;93.40
11549;DHT22;61444;59.472;18.306;2022-07-29T07:34:57;16.80;91.50
11549;DHT22;61444;59.472;18.306;2022-07-29T07:37:06;16.90;90.00
11549;DHT22;61444;59.472;18.306;2022-07-29T07:39:14;17.00;90.10
11549;DHT22;61444;59.472;18.306;2022-07-29T07:41:23;17.00;89.60
11549;DHT22;61444;59.472;18.306;2022-07-29T07:43:38;17.00;89.90
11549;DHT22;61444;59.472;18.306;2022-07-29T07:45:46;17.10;89.40
11549;DHT22;61444;59.472;18.306;2022-07-29T07:47:55;17.10;86.50
11549;DHT22;61444;59.472;18.306;2022-07-29T07:50:08;17.10;86.80
11549;DHT22;61444;59.472;18.306;2022-07-29T07:52:24;17.20;87.60
11549;DHT22;61444;59.472;18.306;2022-07-29T07:54:33;17.30;86.30
11549;DHT22;61444;59.472;18.306;2022-07-29T07:56:41;17.30;86.40
11549;DHT22;61444;59.472;18.306;2022-07-29T07:58:49;17.20;84.40
11549;DHT22;61444;59.472;18.306;2022-07-29T08:00:58;17.20;85.30
11549;DHT22;61444;59.472;18.306;2022-07-29T08:03:07;17.30;86.30
11549;DHT22;61444;59.472;18.306;2022-07-29T08:05:24;17.30;84.50
11549;DHT22;61444;59.472;18.306;2022-07-29T08:07:32;17.50;85.30
11549;DHT22;61444;59.472;18.306;2022-07-29T08:09:41;17.60;85.10
11549;DHT22;61444;59.472;18.306;2022-07-29T08:11:49;17.60;84.80
11549;DHT22;61444;59.472;18.306;2022-07-29T08:13:58;17.60;84.10
11549;DHT22;61444;59.472;18.306;2022-07-29T08:16:08;17.70;83.30
11549;DHT22;61444;59.472;18.306;2022-07-29T08:18:20;17.70;83.50
11549;DHT22;61444;59.472;18.306;2022-07-29T08:20:30;17.70;84.30
11549;DHT22;61444;59.472;18.306;2022-07-29T08:22:40;17.80;82.10
11549;DHT22;61444;59.472;18.306;2022-07-29T08:24:48;17.70;82.20
11549;DHT22;61444;59.472;18.306;2022-07-29T08:27:01;17.80;81.90
11549;DHT22;61444;59.472;18.306;2022-07-29T08:29:09;17.80;81.00
11549;DHT22;61444;59.472;18.306;2022-07-29T08:31:24;17.90;83.30
11549;DHT22;61444;59.472;18.306;2022-07-29T08:33:32;17.90;81.50
11549;DHT22;61444;59.472;18.306;2022-07-29T08:35:42;18.10;81.60
11549;DHT22;61444;59.472;18.306;2022-07-29T08:37:50;18.20;81.10
11549;DHT22;61444;59.472;18.306;2022-07-29T08:39:59;18.40;79.70
11549;DHT22;61444;59.472;18.306;2022-07-29T08:42:07;18.40;79.10
11549;DHT22;61444;59.472;18.306;2022-07-29T08:44:16;18.30;78.80
11549;DHT22;61444;59.472;18.306;2022-07-29T08:46:37;18.30;78.30
11549;DHT22;61444;59.472;18.306;2022-07-29T08:48:46;18.70;80.80
11549;DHT22;61444;59.472;18.306;2022-07-29T08:50:57;18.80;78.60
11549;DHT22;61444;59.472;18.306;2022-07-29T08:53:06;18.90;77.90
11549;DHT22;61444;59.472;18.306;2022-07-29T08:55:15;18.90;78.40
11549;DHT22;61444;59.472;18.306;2022-07-29T08:57:27;18.90;78.40
11549;DHT22;61444;59.472;18.306;2022-07-29T08:59:37;18.90;76.00
11549;DHT22;61444;59.472;18.306;2022-07-29T09:01:48;18.90;75.50
11549;DHT22;61444;59.472;18.306;2022-07-29T09:04:03;18.90;77.70
11549;DHT22;61444;59.472;18.306;2022-07-29T09:06:15;19.20;77.10
11549;DHT22;61444;59.472;18.306;2022-07-29T09:08:26;19.10;76.80
11549;DHT22;61444;59.472;18.306;2022-07-29T09:10:36;18.90;77.00
11549;DHT22;61444;59.472;18.306;2022-07-29T09:12:45;18.80;78.50
11549;DHT22;61444;59.472;18.306;2022-07-29T09:14:53;18.70;77.00
11549;DHT22;61444;59.472;18.306;2022-07-29T09:17:02;18.60;80.30
11549;DHT22;61444;59.472;18.306;2022-07-29T09:19:23;18.80;78.20
11549;DHT22;61444;59.472;18.306;2022-07-29T09:21:40;19.20;77.80
11549;DHT22;61444;59.472;18.306;2022-07-29T09:24:11;19.40;73.80
11549;DHT22;61444;59.472;18.306;2022-07-29T09:26:19;19.60;74.00
11549;DHT22;61444;59.472;18.306;2022-07-29T09:28:41;19.60;72.50
11549;DHT22;61444;59.472;18.306;2022-07-29T09:30:51;19.90;75.60
11549;DHT22;61444;59.472;18.306;2022-07-29T09:33:01;19.80;75.00
11549;DHT22;61444;59.472;18.306;2022-07-29T09:35:21;19.80;75.50
11549;DHT22;61444;59.472;18.306;2022-07-29T09:37:44;20.00;74.70
11549;DHT22;61444;59.472;18.306;2022-07-29T09:39:52;20.00;75.80
11549;DHT22;61444;59.472;18.306;2022-07-29T09:42:04;20.20;75.60
11549;DHT22;61444;59.472;18.306;2022-07-29T09:44:13;20.40;73.10
11549;DHT22;61444;59.472;18.306;2022-07-29T09:46:21;20.20;73.90
11549;DHT22;61444;59.472;18.306;2022-07-29T09:48:30;19.70;71.70
11549;DHT22;61444;59.472;18.306;2022-07-29T09:50:39;19.70;72.20
11549;DHT22;61444;59.472;18.306;2022-07-29T09:52:51;20.00;74.30
11549;DHT22;61444;59.472;18.306;2022-07-29T09:55:05;20.30;74.90
11549;DHT22;61444;59.472;18.306;2022-07-29T09:57:25;20.10;72.10
11549;DHT22;61444;59.472;18.306;2022-07-29T09:59:37;19.80;72.10
11549;DHT22;61444;59.472;18.306;2022-07-29T10:01:56;19.70;74.70
11549;DHT22;61444;59.472;18.306;2022-07-29T10:04:05;20.00;72.70
11549;DHT22;61444;59.472;18.306;2022-07-29T10:06:13;20.10;71.10
11549;DHT22;61444;59.472;18.306;2022-07-29T10:08:26;19.90;70.90
11549;DHT22;61444;59.472;18.306;2022-07-29T10:10:37;19.90;72.50
11549;DHT22;61444;59.472;18.306;2022-07-29T10:12:50;20.10;74.70
11549;DHT22;61444;59.472;18.306;2022-07-29T10:15:01;20.50;72.90
11549;DHT22;61444;59.472;18.306;2022-07-29T10:17:11;20.30;70.50
11549;DHT22;61444;59.472;18.306;2022-07-29T10:19:19;20.10;72.20
11549;DHT22;61444;59.472;18.306;2022-07-29T10:21:28;20.10;72.40
11549;DHT22;61444;59.472;18.306;2022-07-29T10:23:44;19.90;69.80
11549;DHT22;61444;59.472;18.306;2022-07-29T10:25:53;19.80;70.50
11549;DHT22;61444;59.472;18.306;2022-07-29T10:28:01;19.60;72.70
11549;DHT22;61444;59.472;18.306;2022-07-29T10:30:11;19.60;73.20
11549;DHT22;61444;59.472;18.306;2022-07-29T10:32:31;19.40;72.20
11549;DHT22;61444;59.472;18.306;2022-07-29T10:37:18;19.60;72.80
11549;DHT22;61444;59.472;18.306;2022-07-29T10:39:40;19.90;72.60
11549;DHT22;61444;59.472;18.306;2022-07-29T10:42:08;20.10;73.30
11549;DHT22;61444;59.472;18.306;2022-07-29T10:44:23;20.00;73.30
11549;DHT22;61444;59.472;18.306;2022-07-29T10:46:37;20.00;71.50
11549;DHT22;61444;59.472;18.306;2022-07-29T10:49:08;20.00;71.10
11549;DHT22;61444;59.472;18.306;2022-07-29T10:51:21;20.50;72.70
11549;DHT22;61444;59.472;18.306;2022-07-29T10:53:48;20.90;68.70
11549;DHT22;61444;59.472;18.306;2022-07-29T10:55:58;20.90;66.90
11549;DHT22;61444;59.472;18.306;2022-07-29T10:58:14;21.00;67.40
11549;DHT22;61444;59.472;18.306;2022-07-29T11:00:29;20.90;68.60
11549;DHT22;61444;59.472;18.306;2022-07-29T11:02:43;20.70;65.80
11549;DHT22;61444;59.472;18.306;2022-07-29T11:05:02;20.80;68.60
11549;DHT22;61444;59.472;18.306;2022-07-29T11:07:12;21.20;68.50
11549;DHT22;61444;59.472;18.306;2022-07-29T11:09:23;21.20;66.80
11549;DHT22;61444;59.472;18.306;2022-07-29T11:11:44;21.30;65.30
11549;DHT22;61444;59.472;18.306;2022-07-29T11:14:06;20.90;64.80
11549;DHT22;61444;59.472;18.306;2022-07-29T11:16:18;21.00;67.30
11549;DHT22;61444;59.472;18.306;2022-07-29T11:18:31;21.20;67.20
11549;DHT22;61444;59.472;18.306;2022-07-29T11:20:41;21.10;65.30
11549;DHT22;61444;59.472;18.306;2022-07-29T11:22:51;21.10;65.90
11549;DHT22;61444;59.472;18.306;2022-07-29T11:25:13;21.10;67.50
11549;DHT22;61444;59.472;18.306;2022-07-29T11:27:30;20.60;66.30
11549;DHT22;61444;59.472;18.306;2022-07-29T11:29:51;20.50;67.70
11549;DHT22;61444;59.472;18.306;2022-07-29T11:32:08;20.70;68.60
11549;DHT22;61444;59.472;18.306;2022-07-29T11:34:29;21.10;68.00
11549;DHT22;61444;59.472;18.306;2022-07-29T11:37:13;21.00;64.80
11549;DHT22;61444;59.472;18.306;2022-07-29T11:39:27;21.10;65.10
11549;DHT22;61444;59.472;18.306;2022-07-29T11:41:43;21.40;64.40
11549;DHT22;61444;59.472;18.306;2022-07-29T11:43:55;21.60;64.70
11549;DHT22;61444;59.472;18.306;2022-07-29T11:46:05;21.60;63.30
11549;DHT22;61444;59.472;18.306;2022-07-29T11:48:17;21.50;63.70
11549;DHT22;61444;59.472;18.306;2022-07-29T11:50:38;21.50;63.20
11549;DHT22;61444;59.472;18.306;2022-07-29T11:52:50;21.40;66.30
11549;DHT22;61444;59.472;18.306;2022-07-29T11:55:02;21.30;64.00
11549;DHT22;61444;59.472;18.306;2022-07-29T11:57:16;21.00;63.30
11549;DHT22;61444;59.472;18.306;2022-07-29T11:59:29;20.70;64.10
11549;DHT22;61444;59.472;18.306;2022-07-29T12:01:52;20.70;65.40
11549;DHT22;61444;59.472;18.306;2022-07-29T12:04:20;20.50;65.30
11549;DHT22;61444;59.472;18.306;2022-07-29T12:06:31;20.40;65.70
11549;DHT22;61444;59.472;18.306;2022-07-29T12:08:41;20.40;65.10
11549;DHT22;61444;59.472;18.306;2022-07-29T12:10:51;20.40;66.70
11549;DHT22;61444;59.472;18.306;2022-07-29T12:13:01;20.30;64.50
11549;DHT22;61444;59.472;18.306;2022-07-29T12:15:18;20.40;67.20
11549;DHT22;61444;59.472;18.306;2022-07-29T12:17:29;20.50;67.10
11549;DHT22;61444;59.472;18.306;2022-07-29T12:19:42;20.70;66.10
11549;DHT22;61444;59.472;18.306;2022-07-29T12:21:54;20.70;66.60
11549;DHT22;61444;59.472;18.306;2022-07-29T12:24:06;20.60;64.10
11549;DHT22;61444;59.472;18.306;2022-07-29T12:26:15;20.40;64.50
11549;DHT22;61444;59.472;18.306;2022-07-29T12:28:36;20.40;67.70
11549;DHT22;61444;59.472;18.306;2022-07-29T12:30:49;20.40;68.60
11549;DHT22;61444;59.472;18.306;2022-07-29T12:32:57;20.30;68.60
11549;DHT22;61444;59.472;18.306;2022-07-29T12:35:09;20.20;68.10
11549;DHT22;61444;59.472;18.306;2022-07-29T12:37:18;20.20;70.80
11549;DHT22;61444;59.472;18.306;2022-07-29T12:39:46;20.50;69.30
11549;DHT22;61444;59.472;18.306;2022-07-29T12:41:55;21.00;68.30
11549;DHT22;61444;59.472;18.306;2022-07-29T12:44:11;21.10;66.80
11549;DHT22;61444;59.472;18.306;2022-07-29T12:46:21;21.30;67.20
11549;DHT22;61444;59.472;18.306;2022-07-29T12:48:34;21.10;64.40
11549;DHT22;61444;59.472;18.306;2022-07-29T12:50:54;20.90;64.30
11549;DHT22;61444;59.472;18.306;2022-07-29T12:53:11;21.20;66.50
11549;DHT22;61444;59.472;18.306;2022-07-29T12:55:40;21.50;64.60
11549;DHT22;61444;59.472;18.306;2022-07-29T12:57:50;21.50;64.80
11549;DHT22;61444;59.472;18.306;2022-07-29T13:00:04;21.90;66.80
11549;DHT22;61444;59.472;18.306;2022-07-29T13:02:22;22.00;62.70
11549;DHT22;61444;59.472;18.306;2022-07-29T13:04:32;22.00;64.20
11549;DHT22;61444;59.472;18.306;2022-07-29T13:06:45;22.20;63.40
11549;DHT22;61444;59.472;18.306;2022-07-29T13:09:05;22.50;68.80
11549;DHT22;61444;59.472;18.306;2022-07-29T13:11:28;22.70;65.00
11549;DHT22;61444;59.472;18.306;2022-07-29T13:13:50;22.50;63.20
11549;DHT22;61444;59.472;18.306;2022-07-29T13:16:12;22.40;62.80
11549;DHT22;61444;59.472;18.306;2022-07-29T13:18:30;22.20;63.60
11549;DHT22;61444;59.472;18.306;2022-07-29T13:20:38;22.40;62.90
11549;DHT22;61444;59.472;18.306;2022-07-29T13:22:47;22.50;61.20
11549;DHT22;61444;59.472;18.306;2022-07-29T13:24:57;22.40;60.80
11549;DHT22;61444;59.472;18.306;2022-07-29T13:27:05;22.60;61.10
11549;DHT22;61444;59.472;18.306;2022-07-29T13:29:14;22.70;62.00
11549;DHT22;61444;59.472;18.306;2022-07-29T13:31:23;22.40;60.00
11549;DHT22;61444;59.472;18.306;2022-07-29T13:33:33;22.00;58.70
11549;DHT22;61444;59.472;18.306;2022-07-29T13:35:44;21.90;61.10
11549;DHT22;61444;59.472;18.306;2022-07-29T13:37:54;22.10;59.70
11549;DHT22;61444;59.472;18.306;2022-07-29T13:40:03;22.50;59.40
11549;DHT22;61444;59.472;18.306;2022-07-29T13:42:12;22.40;58.70
11549;DHT22;61444;59.472;18.306;2022-07-29T13:44:21;22.50;59.00
11549;DHT22;61444;59.472;18.306;2022-07-29T13:46:29;22.40;59.70